createdAt,value
2018-10-11T00:02:01.319Z,100106.34
2018-10-11T00:04:30.254Z,100106.65
2018-10-11T00:06:59.235Z,100104.19
2018-10-11T00:09:28.141Z,100114.92
2018-10-11T00:11:57.150Z,100116.27
2018-10-11T00:14:26.103Z,100117.75
2018-10-11T00:16:55.074Z,100120.97
2018-10-11T00:19:24.061Z,100118.62
2018-10-11T00:21:52.990Z,100116.41
2018-10-11T00:24:21.947Z,100117.23
2018-10-11T00:26:50.897Z,100119.50
2018-10-11T00:29:19.876Z,100123.96
2018-10-11T00:31:48.822Z,100119.59
2018-10-11T00:34:17.806Z,100126.00
2018-10-11T00:36:46.765Z,100119.28
2018-10-11T00:39:15.723Z,100112.83
2018-10-11T00:41:44.630Z,100102.83
2018-10-11T00:44:16.432Z,100097.83
2018-10-11T00:46:47.134Z,100094.46
2018-10-11T00:49:16.109Z,100089.13
2018-10-11T00:51:45.039Z,100083.91
2018-10-11T00:54:14.003Z,100080.73
2018-10-11T00:56:42.924Z,100084.41
2018-10-11T00:59:12.342Z,100085.59
2018-10-11T01:01:41.873Z,100095.14
2018-10-11T01:04:11.347Z,100093.28
2018-10-11T01:06:40.522Z,100101.71
2018-10-11T01:09:11.048Z,100092.94
2018-10-11T01:11:40.376Z,100100.37
2018-10-11T01:14:09.917Z,100101.95
2018-10-11T01:16:38.882Z,100086.75
2018-10-11T01:19:07.935Z,100090.11
2018-10-11T01:21:36.873Z,100097.94
2018-10-11T01:24:05.835Z,100095.80
2018-10-11T01:26:34.867Z,100091.33
2018-10-11T01:29:03.853Z,100096.54
2018-10-11T01:31:32.761Z,100087.87
2018-10-11T01:34:01.726Z,100080.36
2018-10-11T01:36:30.646Z,100077.22
2018-10-11T01:38:59.642Z,100077.27
2018-10-11T01:41:28.635Z,100074.41
2018-10-11T01:43:57.658Z,100071.23
2018-10-11T01:46:26.568Z,100064.70
2018-10-11T01:48:55.558Z,100058.34
2018-10-11T01:51:24.508Z,100064.12
2018-10-11T01:53:53.462Z,100057.50
2018-10-11T01:56:22.415Z,100052.64
2018-10-11T01:58:51.366Z,100040.78
2018-10-11T02:01:20.349Z,100046.92
2018-10-11T02:03:49.287Z,100050.44
2018-10-11T02:06:18.262Z,100058.34
2018-10-11T02:08:47.205Z,100048.17
2018-10-11T02:11:16.216Z,100055.41
2018-10-11T02:13:45.158Z,100041.76
2018-10-11T02:16:14.133Z,100041.02
2018-10-11T02:18:43.142Z,100034.22
2018-10-11T02:21:12.085Z,100029.48
2018-10-11T02:23:41.047Z,100028.38
2018-10-11T02:26:09.985Z,100021.52
2018-10-11T02:28:38.916Z,100027.20
2018-10-11T02:31:07.990Z,100035.86
2018-10-11T02:33:36.997Z,100038.29
2018-10-11T02:36:05.953Z,100037.38
2018-10-11T02:38:34.982Z,100037.91
2018-10-11T02:41:03.962Z,100027.08
2018-10-11T02:43:32.895Z,100027.11
2018-10-11T02:46:01.855Z,100029.67
2018-10-11T02:48:30.811Z,100025.01
2018-10-11T02:50:59.781Z,100015.41
2018-10-11T02:53:28.706Z,100014.22
2018-10-11T02:55:57.804Z,100013.29
2018-10-11T02:58:37.818Z,100013.65
2018-10-11T03:01:06.786Z,100024.10
2018-10-11T03:03:35.810Z,100022.27
2018-10-11T03:06:04.804Z,100027.50
2018-10-11T03:08:33.736Z,100026.62
2018-10-11T03:11:02.696Z,100017.44
2018-10-11T03:13:31.618Z,100016.27
2018-10-11T03:16:00.635Z,100009.05
2018-10-11T03:18:29.550Z,100022.39
2018-10-11T03:20:58.481Z,100029.92
2018-10-11T03:23:27.418Z,100033.85
2018-10-11T03:25:56.361Z,100032.45
2018-10-11T03:28:25.315Z,100017.48
2018-10-11T03:30:54.315Z,100012.59
2018-10-11T03:33:23.250Z,100018.16
2018-10-11T03:35:52.162Z,100020.88
2018-10-11T03:38:21.127Z,100023.27
2018-10-11T03:40:50.116Z,100031.45
2018-10-11T03:43:19.071Z,100028.45
2018-10-11T03:45:48.013Z,100031.11
2018-10-11T03:48:16.962Z,100025.67
2018-10-11T03:50:45.869Z,100029.86
2018-10-11T03:53:14.842Z,100032.02
2018-10-11T03:55:43.754Z,100026.23
2018-10-11T03:58:12.782Z,100025.80
2018-10-11T04:00:41.706Z,100037.67
2018-10-11T04:03:10.677Z,100037.06
2018-10-11T04:05:39.625Z,100034.95
2018-10-11T04:08:08.585Z,100040.69
2018-10-11T04:10:37.509Z,100050.38
2018-10-11T04:13:06.474Z,100048.25
2018-10-11T04:15:35.535Z,100054.17
2018-10-11T04:18:04.486Z,100049.86
2018-10-11T04:20:33.435Z,100043.70
2018-10-11T04:23:02.405Z,100052.64
2018-10-11T04:25:31.326Z,100051.02
2018-10-11T04:28:00.274Z,100057.95
2018-10-11T04:30:29.194Z,100066.11
2018-10-11T04:32:58.510Z,100063.03
2018-10-11T04:35:27.412Z,100067.63
2018-10-11T04:37:56.397Z,100074.93
2018-10-11T04:40:25.332Z,100072.20
2018-10-11T04:42:54.366Z,100064.73
2018-10-11T04:45:23.312Z,100067.11
2018-10-11T04:47:52.272Z,100076.56
2018-10-11T04:50:21.190Z,100076.06
2018-10-11T04:52:50.159Z,100067.67
2018-10-11T04:55:19.065Z,100073.02
2018-10-11T04:57:48.047Z,100075.84
2018-10-11T05:00:17.215Z,100076.97
2018-10-11T05:02:46.377Z,100085.14
2018-10-11T05:05:15.530Z,100084.58
2018-10-11T05:07:44.718Z,100088.86
2018-10-11T05:10:13.878Z,100084.80
2018-10-11T05:12:43.020Z,100086.39
2018-10-11T05:15:12.211Z,100081.11
2018-10-11T05:17:41.803Z,100069.38
2018-10-11T05:20:11.027Z,100074.81
2018-10-11T05:22:40.241Z,100062.06
2018-10-11T05:25:09.483Z,100059.89
2018-10-11T05:27:38.627Z,100051.95
2018-10-11T05:30:07.865Z,100052.55
2018-10-11T05:32:37.217Z,100067.59
2018-10-11T05:35:06.728Z,100069.67
2018-10-11T05:37:35.898Z,100090.54
2018-10-11T05:40:05.122Z,100095.97
2018-10-11T05:42:34.405Z,100095.57
2018-10-11T05:45:10.400Z,100107.40
2018-10-11T05:47:39.621Z,100105.54
2018-10-11T05:50:08.933Z,100109.97
2018-10-11T05:52:38.164Z,100112.73
2018-10-11T05:55:08.047Z,100111.00
2018-10-11T05:57:37.299Z,100116.56
2018-10-11T06:00:06.755Z,100123.56
2018-10-11T06:02:36.440Z,100126.70
2018-10-11T06:05:05.977Z,100127.03
2018-10-11T06:07:35.349Z,100125.16
2018-10-11T06:10:04.677Z,100126.98
2018-10-11T06:12:33.901Z,100129.02
2018-10-11T06:15:03.671Z,100122.50
2018-10-11T06:17:32.897Z,100115.49
2018-10-11T06:20:02.054Z,100128.77
2018-10-11T06:22:31.196Z,100136.78
2018-10-11T06:25:00.332Z,100130.30
2018-10-11T06:27:29.424Z,100131.70
2018-10-11T06:29:58.512Z,100137.06
2018-10-11T06:32:27.737Z,100137.34
2018-10-11T06:34:56.892Z,100138.94
2018-10-11T06:37:26.148Z,100142.72
2018-10-11T06:39:55.809Z,100149.06
2018-10-11T06:42:25.285Z,100154.95
2018-10-11T06:44:55.529Z,100173.35
2018-10-11T06:47:24.734Z,100174.95
2018-10-11T06:49:53.943Z,100182.11
2018-10-11T06:52:23.081Z,100179.05
2018-10-11T06:54:52.231Z,100182.10
2018-10-11T06:57:21.441Z,100181.53
2018-10-11T06:59:50.584Z,100194.97
2018-10-11T07:02:19.802Z,100194.35
2018-10-11T07:04:49.008Z,100197.41
2018-10-11T07:07:18.789Z,100209.70
2018-10-11T07:09:47.869Z,100214.09
2018-10-11T07:12:17.099Z,100206.80
2018-10-11T07:14:47.136Z,100204.62
2018-10-11T07:17:17.305Z,100216.33
2018-10-11T07:19:46.851Z,100219.00
2018-10-11T07:22:16.108Z,100220.19
2018-10-11T07:24:45.237Z,100229.89
2018-10-11T07:27:14.459Z,100229.25
2018-10-11T07:29:43.607Z,100236.67
2018-10-11T07:32:12.901Z,100235.02
2018-10-11T07:34:42.162Z,100223.45
2018-10-11T07:37:11.384Z,100229.06
2018-10-11T07:39:40.529Z,100229.00
2018-10-11T07:42:09.868Z,100229.90
2018-10-11T07:44:39.030Z,100230.56
2018-10-11T07:47:08.584Z,100247.13
2018-10-11T07:49:38.026Z,100241.89
2018-10-11T07:52:07.149Z,100237.95
2018-10-11T07:54:36.251Z,100237.34
2018-10-11T07:57:05.442Z,100234.22
2018-10-11T07:59:34.871Z,100238.16
2018-10-11T08:02:04.410Z,100234.83
2018-10-11T08:04:33.540Z,100234.22
2018-10-11T08:07:02.716Z,100237.70
2018-10-11T08:09:31.776Z,100243.77
2018-10-11T08:12:01.446Z,100260.04
2018-10-11T08:14:30.451Z,100248.39
2018-10-11T08:16:59.900Z,100255.09
2018-10-11T08:19:29.145Z,100250.45
2018-10-11T08:21:58.212Z,100252.77
2018-10-11T08:24:27.564Z,100248.13
2018-10-11T08:26:56.750Z,100242.66
2018-10-11T08:29:26.456Z,100245.65
2018-10-11T08:31:56.035Z,100246.65
2018-10-11T08:34:25.787Z,100245.80
2018-10-11T08:36:55.967Z,100247.33
2018-10-11T08:39:25.237Z,100243.50
2018-10-11T08:41:54.406Z,100252.95
2018-10-11T08:44:23.762Z,100257.59
2018-10-11T08:46:53.198Z,100260.36
2018-10-11T08:49:22.556Z,100252.05
2018-10-11T08:51:51.849Z,100260.95
2018-10-11T08:54:26.477Z,100260.01
2018-10-11T08:56:55.992Z,100270.17
2018-10-11T08:59:25.279Z,100282.64
2018-10-11T09:01:54.336Z,100287.32
2018-10-11T09:04:23.511Z,100292.52
2018-10-11T09:06:52.949Z,100296.20
2018-10-11T09:09:22.178Z,100291.14
2018-10-11T09:11:51.536Z,100283.17
2018-10-11T09:14:21.065Z,100278.48
2018-10-11T09:16:50.262Z,100291.53
2018-10-11T09:19:19.561Z,100289.34
2018-10-11T09:21:48.753Z,100276.30
2018-10-11T09:24:17.990Z,100264.28
2018-10-11T09:26:47.440Z,100254.37
2018-10-11T09:35:06.962Z,100252.68
2018-10-11T09:37:37.241Z,100264.21
2018-10-11T09:40:07.787Z,100254.34
2018-10-11T09:42:38.021Z,100253.77
2018-10-11T09:45:08.237Z,100253.67
2018-10-11T09:47:37.668Z,100255.59
2018-10-11T09:50:07.182Z,100249.28
2018-10-11T09:52:38.241Z,100250.97
2018-10-11T09:55:07.841Z,100249.84
2018-10-11T09:57:38.537Z,100244.23
2018-10-11T10:00:15.346Z,100244.52
2018-10-11T10:02:45.430Z,100251.66
2018-10-11T10:05:14.983Z,100243.20
2018-10-11T10:08:00.081Z,100236.22
2018-10-11T10:10:41.371Z,100235.45
2018-10-11T10:13:23.507Z,100222.38
2018-10-11T10:15:58.281Z,100215.58
2018-10-11T10:18:38.412Z,100209.44
2018-10-11T10:21:21.508Z,100226.98
2018-10-11T10:23:56.674Z,100236.44
2018-10-11T10:26:43.061Z,100246.12
2018-10-11T10:32:08.058Z,100264.46
2018-10-11T10:34:36.962Z,100271.73
2018-10-11T10:37:05.977Z,100275.04
2018-10-11T10:39:34.924Z,100277.50
2018-10-11T10:42:03.878Z,100276.52
2018-10-11T10:44:32.829Z,100271.64
2018-10-11T10:47:01.827Z,100272.73
2018-10-11T10:49:30.723Z,100278.08
2018-10-11T10:51:59.689Z,100277.34
2018-10-11T10:54:29.719Z,100271.92
2018-10-11T10:56:59.280Z,100270.78
2018-10-11T10:59:28.338Z,100255.73
2018-10-11T11:01:57.408Z,100257.14
2018-10-11T11:04:26.389Z,100252.24
2018-10-11T11:06:55.563Z,100253.11
2018-10-11T11:09:24.529Z,100254.14
2018-10-11T11:11:53.519Z,100250.45
2018-10-11T11:14:22.435Z,100236.78
2018-10-11T11:16:51.414Z,100232.40
2018-10-11T11:19:20.326Z,100234.14
2018-10-11T11:21:49.308Z,100234.55
2018-10-11T11:24:18.235Z,100232.09
2018-10-11T11:26:47.190Z,100230.64
2018-10-11T11:29:16.115Z,100232.07
2018-10-11T11:31:45.098Z,100230.25
2018-10-11T11:34:14.091Z,100234.10
2018-10-11T11:36:42.985Z,100234.31
2018-10-11T11:39:11.950Z,100227.95
2018-10-11T11:41:40.849Z,100227.67
2018-10-11T11:44:09.803Z,100222.02
2018-10-11T11:46:38.727Z,100225.14
2018-10-11T11:49:07.675Z,100224.34
2018-10-11T11:51:36.640Z,100213.55
2018-10-11T11:54:09.666Z,100208.64
2018-10-11T11:56:38.630Z,100213.63
2018-10-11T11:59:07.721Z,100211.62
2018-10-11T12:01:36.726Z,100218.53
2018-10-11T12:04:05.695Z,100217.88
2018-10-11T12:06:34.607Z,100217.08
2018-10-11T12:09:03.818Z,100220.88
2018-10-11T12:11:32.764Z,100221.90
2018-10-11T12:14:01.736Z,100221.97
2018-10-11T12:16:30.751Z,100215.37
2018-10-11T12:18:59.746Z,100207.54
2018-10-11T12:21:29.163Z,100206.30
2018-10-11T12:23:58.118Z,100205.64
2018-10-11T12:26:27.050Z,100213.72
2018-10-11T12:28:56.025Z,100215.88
2018-10-11T12:31:24.972Z,100212.34
2018-10-11T12:33:53.929Z,100205.84
2018-10-11T12:36:22.927Z,100202.26
2018-10-11T12:38:52.007Z,100204.49
2018-10-11T12:41:20.978Z,100191.62
2018-10-11T12:43:49.985Z,100201.26
2018-10-11T12:46:18.894Z,100197.65
2018-10-11T12:48:47.901Z,100205.52
2018-10-11T12:51:16.809Z,100207.16
2018-10-11T12:53:48.303Z,100212.77
2018-10-11T12:56:14.864Z,100205.25
2018-10-11T12:58:43.955Z,100205.83
2018-10-11T13:01:16.354Z,100197.36
2018-10-11T13:03:41.871Z,100194.78
2018-10-11T13:06:10.754Z,100191.52
2018-10-11T13:08:39.689Z,100186.84
2018-10-11T13:11:08.639Z,100189.19
2018-10-11T13:13:37.620Z,100185.72
2018-10-11T13:16:06.546Z,100180.98
2018-10-11T13:18:35.486Z,100176.84
2018-10-11T13:21:04.477Z,100173.73
2018-10-11T13:23:33.406Z,100172.25
2018-10-11T13:26:02.390Z,100188.22
2018-10-11T13:28:31.362Z,100194.30
2018-10-11T13:31:00.326Z,100205.30
2018-10-11T13:33:29.294Z,100200.75
2018-10-11T13:35:58.277Z,100191.42
2018-10-11T13:38:27.218Z,100174.91
2018-10-11T13:40:59.549Z,100174.88
2018-10-11T13:43:25.257Z,100183.52
2018-10-11T13:45:58.087Z,100184.45
2018-10-11T13:48:23.208Z,100199.02
2018-10-11T13:50:52.478Z,100205.91
2018-10-11T13:53:24.525Z,100205.16
2018-10-11T13:55:53.620Z,100212.27
2018-10-11T13:58:19.452Z,100209.45
2018-10-11T14:00:48.455Z,100209.88
2018-10-11T14:03:17.390Z,100214.31
2018-10-11T14:05:46.445Z,100211.75
2018-10-11T14:08:15.420Z,100215.59
2018-10-11T14:10:44.493Z,100218.71
2018-10-11T14:13:16.432Z,100217.82
2018-10-11T14:15:42.423Z,100208.95
2018-10-11T14:18:12.646Z,100210.94
2018-10-11T14:20:40.411Z,100206.33
2018-10-11T14:23:09.372Z,100198.00
2018-10-11T14:25:38.370Z,100192.67
2018-10-11T14:28:07.474Z,100198.11
2018-10-11T14:30:36.478Z,100201.33
2018-10-11T14:33:05.431Z,100200.44
2018-10-11T14:35:34.422Z,100199.56
2018-10-11T14:38:03.366Z,100202.66
2018-10-11T14:40:32.455Z,100201.83
2018-10-11T14:43:01.479Z,100206.21
2018-10-11T14:45:30.393Z,100196.94
2018-10-11T14:47:59.365Z,100193.70
2018-10-11T14:50:28.327Z,100188.73
2018-10-11T14:52:57.377Z,100194.90
2018-10-11T14:55:26.371Z,100194.38
2018-10-11T14:57:55.363Z,100183.29
2018-10-11T15:00:24.284Z,100182.77
2018-10-11T15:02:53.329Z,100181.80
2018-10-11T15:05:22.334Z,100177.36
2018-10-11T15:07:51.374Z,100183.92
2018-10-11T15:10:20.377Z,100179.90
2018-10-11T15:12:49.334Z,100179.58
2018-10-11T15:15:18.268Z,100182.58
2018-10-11T15:17:47.271Z,100186.70
2018-10-11T15:20:16.350Z,100186.33
2018-10-11T15:22:45.314Z,100181.45
2018-10-11T15:25:14.233Z,100176.56
2018-10-11T15:27:43.194Z,100179.78
2018-10-11T15:30:12.111Z,100187.58
2018-10-11T15:32:41.083Z,100190.03
2018-10-11T15:35:10.062Z,100186.13
2018-10-11T15:37:39.085Z,100185.82
2018-10-11T15:40:08.152Z,100194.25
2018-10-11T15:42:37.203Z,100192.58
2018-10-11T15:45:07.318Z,100191.33
2018-10-11T15:47:36.426Z,100202.06
2018-10-11T15:50:05.411Z,100202.74
2018-10-11T15:52:34.821Z,100206.48
2018-10-11T15:55:03.726Z,100207.78
2018-10-11T15:57:32.744Z,100205.91
2018-10-11T16:00:01.937Z,100206.98
2018-10-11T16:02:31.002Z,100206.53
2018-10-11T16:04:59.955Z,100202.27
2018-10-11T16:07:28.865Z,100210.53
2018-10-11T16:09:57.858Z,100205.59
2018-10-11T16:12:26.806Z,100208.62
2018-10-11T16:14:55.773Z,100210.48
2018-10-11T16:17:24.672Z,100207.98
2018-10-11T16:19:53.698Z,100208.27
2018-10-11T16:22:22.653Z,100218.06
2018-10-11T16:24:51.756Z,100219.56
2018-10-11T16:27:20.657Z,100221.38
2018-10-11T16:29:49.805Z,100224.91
2018-10-11T16:32:18.813Z,100214.44
2018-10-11T16:34:47.733Z,100219.66
2018-10-11T16:37:16.676Z,100222.78
2018-10-11T16:39:45.637Z,100223.72
2018-10-11T16:42:14.547Z,100229.85
2018-10-11T16:44:43.529Z,100234.32
2018-10-11T16:47:12.434Z,100227.73
2018-10-11T16:49:41.472Z,100239.89
2018-10-11T16:52:10.394Z,100245.21
2018-10-11T16:54:42.494Z,100244.57
2018-10-11T16:57:12.583Z,100251.16
2018-10-11T16:59:41.534Z,100263.16
2018-10-11T17:02:10.461Z,100259.67
2018-10-11T17:04:39.643Z,100267.56
2018-10-11T17:07:08.498Z,100264.66
2018-10-11T17:09:37.548Z,100267.77
2018-10-11T17:12:07.196Z,100270.66
2018-10-11T17:14:36.182Z,100272.37
2018-10-11T17:17:05.178Z,100270.42
2018-10-11T17:19:34.139Z,100262.41
2018-10-11T17:22:03.098Z,100262.95
2018-10-11T17:24:32.083Z,100270.17
2018-10-11T17:27:01.005Z,100270.86
2018-10-11T17:29:30.005Z,100277.68
2018-10-11T17:31:59.168Z,100277.23
2018-10-11T17:34:28.102Z,100275.50
2018-10-11T17:36:57.014Z,100272.50
2018-10-11T17:39:25.963Z,100268.24
2018-10-11T17:41:54.961Z,100270.02
2018-10-11T17:44:23.906Z,100261.39
2018-10-11T17:46:52.887Z,100267.25
2018-10-11T17:49:21.893Z,100272.64
2018-10-11T17:51:50.989Z,100272.27
2018-10-11T17:54:19.933Z,100277.26
2018-10-11T17:56:49.028Z,100273.61
2018-10-11T17:59:17.922Z,100282.40
2018-10-11T18:01:46.864Z,100286.39
2018-10-11T18:04:15.812Z,100288.20
2018-10-11T18:06:44.761Z,100288.44
2018-10-11T18:09:13.677Z,100285.34
2018-10-11T18:11:42.647Z,100291.33
2018-10-11T18:14:12.299Z,100292.25
2018-10-11T18:16:41.299Z,100288.88
2018-10-11T18:19:10.239Z,100289.91
2018-10-11T18:21:39.353Z,100288.52
2018-10-11T18:24:08.396Z,100285.50
2018-10-11T18:26:37.418Z,100290.04
2018-10-11T18:29:06.486Z,100289.98
2018-10-11T18:31:35.530Z,100290.44
2018-10-11T18:34:04.466Z,100302.13
2018-10-11T18:36:33.468Z,100301.36
2018-10-11T18:39:02.692Z,100300.63
2018-10-11T18:41:31.661Z,100307.30
2018-10-11T18:44:00.556Z,100301.97
2018-10-11T18:46:29.510Z,100307.47
2018-10-11T18:48:58.434Z,100310.48
2018-10-11T18:51:27.409Z,100309.14
2018-10-11T18:53:56.373Z,100306.58
2018-10-11T18:56:25.425Z,100306.96
2018-10-11T18:58:54.495Z,100307.47
2018-10-11T19:01:23.616Z,100308.70
2018-10-11T19:03:52.789Z,100313.83
2018-10-11T19:06:21.845Z,100316.80
2018-10-11T19:08:50.737Z,100321.23
2018-10-11T19:11:19.758Z,100322.99
2018-10-11T19:13:48.746Z,100323.72
2018-10-11T19:16:17.686Z,100332.30
2018-10-11T19:18:46.655Z,100330.70
2018-10-11T19:21:15.541Z,100327.97
2018-10-11T19:23:44.513Z,100328.84
2018-10-11T19:26:13.424Z,100330.93
2018-10-11T19:28:42.413Z,100330.69
2018-10-11T19:31:11.330Z,100327.70
2018-10-11T19:33:40.324Z,100329.88
2018-10-11T19:36:09.415Z,100329.05
2018-10-11T19:38:38.477Z,100322.31
2018-10-11T19:41:07.415Z,100323.59
2018-10-11T19:43:36.375Z,100324.48
2018-10-11T19:46:05.265Z,100315.41
2018-10-11T19:48:34.259Z,100310.77
2018-10-11T19:51:03.185Z,100311.16
2018-10-11T19:53:32.166Z,100315.08
2018-10-11T19:56:01.109Z,100318.17
2018-10-11T19:58:30.101Z,100317.13
2018-10-11T20:00:59.462Z,100319.37
2018-10-11T20:03:28.494Z,100319.23
2018-10-11T20:05:57.467Z,100321.64
2018-10-11T20:08:26.505Z,100324.90
2018-10-11T20:10:55.575Z,100328.58
2018-10-11T20:13:24.550Z,100331.92
2018-10-11T20:15:53.522Z,100332.54
2018-10-11T20:18:22.461Z,100338.31
2018-10-11T20:20:51.400Z,100336.20
2018-10-11T20:23:20.355Z,100339.65
2018-10-11T20:25:49.354Z,100337.36
2018-10-11T20:28:18.303Z,100347.33
2018-10-11T20:30:47.427Z,100341.43
2018-10-11T20:33:16.366Z,100347.61
2018-10-11T20:35:45.329Z,100342.46
2018-10-11T20:38:14.274Z,100351.70
2018-10-11T20:40:43.246Z,100347.37
2018-10-11T20:43:12.204Z,100342.45
2018-10-11T20:45:41.233Z,100344.99
2018-10-11T20:48:10.186Z,100349.84
2018-10-11T20:50:39.177Z,100352.63
2018-10-11T20:53:08.081Z,100346.27
2018-10-11T20:55:37.118Z,100346.50
2018-10-11T20:58:06.046Z,100349.78
2018-10-11T21:00:35.070Z,100348.75
2018-10-11T21:03:04.379Z,100345.25
2018-10-11T21:05:33.468Z,100342.65
2018-10-11T21:08:02.394Z,100344.39
2018-10-11T21:10:31.412Z,100339.52
2018-10-11T21:13:00.340Z,100356.25
2018-10-11T21:15:29.347Z,100354.75
2018-10-11T21:17:58.317Z,100361.52
2018-10-11T21:20:27.423Z,100355.48
2018-10-11T21:22:56.266Z,100367.58
2018-10-11T21:25:25.226Z,100362.04
2018-10-11T21:27:54.141Z,100357.55
2018-10-11T21:30:23.317Z,100352.83
2018-10-11T21:32:52.231Z,100356.14
2018-10-11T21:35:21.158Z,100369.13
2018-10-11T21:37:50.207Z,100363.83
2018-10-11T21:40:19.152Z,100366.47
2018-10-11T21:42:48.143Z,100366.44
2018-10-11T21:45:17.083Z,100365.63
2018-10-11T21:47:46.080Z,100367.84
2018-10-11T21:50:15.027Z,100369.87
2018-10-11T21:52:44.091Z,100370.78
2018-10-11T21:55:12.963Z,100384.28
2018-10-11T21:57:41.951Z,100386.98
2018-10-11T22:00:11.328Z,100381.66
2018-10-11T22:02:40.345Z,100375.95
2018-10-11T22:05:09.357Z,100379.66
2018-10-11T22:07:38.353Z,100379.87
2018-10-11T22:10:07.348Z,100376.81
2018-10-11T22:12:36.322Z,100383.02
2018-10-11T22:15:05.589Z,100376.30
2018-10-11T22:17:34.418Z,100374.42
2018-10-11T22:20:03.359Z,100375.32
2018-10-11T22:22:32.314Z,100374.83
2018-10-11T22:25:01.213Z,100383.66
2018-10-11T22:27:30.182Z,100384.77
2018-10-11T22:29:59.101Z,100387.11
2018-10-11T22:32:28.062Z,100396.84
2018-10-11T22:34:56.970Z,100403.20
2018-10-11T22:37:25.910Z,100403.21
2018-10-11T22:39:54.817Z,100400.89
2018-10-11T22:42:23.810Z,100388.95
2018-10-11T22:44:52.710Z,100403.27
2018-10-11T22:47:21.706Z,100398.88
2018-10-11T22:49:50.639Z,100402.95
2018-10-11T22:52:19.546Z,100408.66
2018-10-11T22:54:48.470Z,100410.66
2018-10-11T22:57:17.366Z,100405.79
2018-10-11T22:59:46.595Z,100416.69
2018-10-11T23:02:15.545Z,100408.00
2018-10-11T23:04:44.494Z,100422.14
2018-10-11T23:07:13.395Z,100429.77
2018-10-11T23:09:42.354Z,100432.34
2018-10-11T23:12:11.261Z,100434.02
2018-10-11T23:14:40.287Z,100448.31
2018-10-11T23:17:09.213Z,100433.84
2018-10-11T23:19:38.186Z,100442.75
2018-10-11T23:22:07.136Z,100447.25
2018-10-11T23:24:36.106Z,100462.06
2018-10-11T23:27:05.066Z,100454.50
2018-10-11T23:29:34.051Z,100460.34
2018-10-11T23:32:02.975Z,100467.70
2018-10-11T23:34:31.982Z,100462.66
2018-10-11T23:37:00.948Z,100465.39
2018-10-11T23:39:29.885Z,100469.71
2018-10-11T23:41:58.833Z,100469.58
2018-10-11T23:44:27.830Z,100479.19
2018-10-11T23:46:56.754Z,100486.04
2018-10-11T23:49:25.717Z,100491.14
2018-10-11T23:51:54.630Z,100489.27
2018-10-11T23:54:23.606Z,100482.55
2018-10-11T23:56:52.656Z,100492.20
2018-10-11T23:59:21.570Z,100491.88
